Time;durP1;ratioP1;P1;durP2;ratioP2;P2;SDS_P1;SDS_P2;PMS_P1;PMS_P2;Temp;Humidity;BMP_temperature;BMP_pressure;BME280_temperature;BME280_humidity;BME280_pressure;Samples;Min_cycle;Max_cycle;Signal;HPM_P1;HPM_P2
2021/07/11 00:02:07;;;;;;;7.50;2.10;;;15.60;99.90;;;;;;5071949;28;20557;-70
2021/07/11 00:04:33;;;;;;;3.97;2.20;;;15.60;99.90;;;;;;5072651;28;20181;-70
2021/07/11 00:06:59;;;;;;;7.32;1.98;;;15.60;99.90;;;;;;5073358;28;20210;-70
2021/07/11 00:09:26;;;;;;;8.77;2.05;;;15.60;99.90;;;;;;5073075;28;20207;-70
2021/07/11 00:11:52;;;;;;;7.88;2.30;;;15.60;99.90;;;;;;5072793;28;20189;-70
2021/07/11 00:14:18;;;;;;;9.45;2.25;;;15.60;99.90;;;;;;5073023;28;20200;-70
2021/07/11 00:16:44;;;;;;;6.78;2.20;;;15.60;99.90;;;;;;5073039;28;20193;-70
2021/07/11 00:19:10;;;;;;;7.47;2.50;;;15.60;99.90;;;;;;5071700;28;20533;-70
2021/07/11 00:21:36;;;;;;;6.97;1.83;;;15.60;99.90;;;;;;5072069;28;20528;-69
2021/07/11 00:24:02;;;;;;;9.43;2.03;;;15.60;99.90;;;;;;5071527;28;20185;-70
2021/07/11 00:26:29;;;;;;;7.55;2.22;;;15.60;99.90;;;;;;5071467;28;20213;-70
2021/07/11 00:28:56;;;;;;;9.27;2.20;;;15.60;99.90;;;;;;5070913;28;20550;-71
2021/07/11 00:31:22;;;;;;;10.70;2.42;;;15.60;99.90;;;;;;5070918;28;20551;-70
2021/07/11 00:33:48;;;;;;;10.00;2.05;;;15.60;99.90;;;;;;5072773;28;20185;-71
2021/07/11 00:36:14;;;;;;;7.18;2.30;;;15.60;99.90;;;;;;5072809;28;20178;-70
2021/07/11 00:38:40;;;;;;;12.00;2.05;;;15.50;99.90;;;;;;5070505;28;20178;-71
2021/07/11 00:41:06;;;;;;;12.25;2.40;;;15.50;99.90;;;;;;5072127;28;20218;-70
2021/07/11 00:43:33;;;;;;;6.70;2.20;;;15.50;99.90;;;;;;5071155;28;20673;-69
2021/07/11 00:46:00;;;;;;;6.05;1.85;;;15.50;99.90;;;;;;5072472;28;20221;-71
2021/07/11 00:48:26;;;;;;;7.13;2.35;;;15.60;99.90;;;;;;5071518;28;20197;-71
2021/07/11 00:50:54;;;;;;;10.88;1.95;;;15.50;99.90;;;;;;5054218;28;20166;-70
2021/07/11 00:53:20;;;;;;;9.80;2.20;;;15.60;99.90;;;;;;5072484;28;20173;-70
2021/07/11 00:55:47;;;;;;;7.65;2.47;;;15.60;99.90;;;;;;5072288;28;20170;-70
2021/07/11 00:58:13;;;;;;;7.93;2.28;;;15.60;99.90;;;;;;5072431;28;20193;-70
2021/07/11 01:00:39;;;;;;;13.13;3.03;;;15.60;99.90;;;;;;5072309;28;20178;-70
2021/07/11 01:03:22;;;;;;;7.90;2.70;;;15.60;99.90;;;;;;5070484;28;20552;-70
2021/07/11 01:05:48;;;;;;;9.00;3.05;;;15.60;99.90;;;;;;5069803;28;20631;-70
2021/07/11 01:08:32;;;;;;;11.13;2.35;;;15.60;99.90;;;;;;5070852;28;20169;-70
2021/07/11 01:11:05;;;;;;;8.20;2.35;;;15.60;99.90;;;;;;5065649;28;20170;-71
2021/07/11 01:13:32;;;;;;;10.30;2.47;;;15.60;99.90;;;;;;5072042;28;20170;-70
2021/07/11 01:16:00;;;;;;;6.07;2.70;;;15.60;99.90;;;;;;5070999;28;20174;-71
2021/07/11 01:18:26;;;;;;;6.63;2.30;;;15.60;99.90;;;;;;5070015;28;20193;-71
2021/07/11 01:21:02;;;;;;;4.75;2.30;;;15.60;99.90;;;;;;5070121;28;20170;-71
2021/07/11 01:23:46;;;;;;;5.03;2.30;;;15.60;99.90;;;;;;5070094;28;20193;-71
2021/07/11 01:26:13;;;;;;;15.40;2.72;;;15.60;99.90;;;;;;5072343;28;20201;-71
2021/07/11 01:28:40;;;;;;;5.22;2.30;;;15.60;99.90;;;;;;5069799;28;20170;-70
2021/07/11 01:31:06;;;;;;;4.78;2.40;;;15.60;99.90;;;;;;5070548;28;20204;-70
2021/07/11 01:33:33;;;;;;;11.35;3.25;;;15.70;99.90;;;;;;5069536;28;20158;-70
2021/07/11 01:36:00;;;;;;;8.13;2.42;;;15.60;99.90;;;;;;5070836;28;20178;-70
2021/07/11 01:38:26;;;;;;;9.38;3.00;;;15.60;99.90;;;;;;5070981;28;20170;-70
2021/07/11 01:40:52;;;;;;;14.02;3.00;;;15.60;99.90;;;;;;5072922;28;20217;-70
2021/07/11 01:43:20;;;;;;;5.82;2.20;;;15.60;99.90;;;;;;5058257;28;20158;-70
2021/07/11 01:45:50;;;;;;;9.05;2.50;;;15.60;99.90;;;;;;5075969;28;20194;-70
2021/07/11 01:48:17;;;;;;;8.23;2.30;;;15.60;99.90;;;;;;5075770;28;20170;-71
2021/07/11 01:50:43;;;;;;;11.27;2.67;;;15.60;99.90;;;;;;5053939;28;20662;-70
2021/07/11 01:53:10;;;;;;;12.32;2.80;;;15.60;99.90;;;;;;5028409;28;20179;-71
2021/07/11 01:55:36;;;;;;;5.75;2.38;;;15.60;99.90;;;;;;5074277;28;20174;-70
2021/07/11 01:58:03;;;;;;;9.38;2.30;;;15.60;99.90;;;;;;5074836;28;20173;-71
2021/07/11 02:00:29;;;;;;;7.93;2.17;;;15.60;99.90;;;;;;5075670;28;20178;-71
2021/07/11 02:02:55;;;;;;;13.88;2.92;;;15.60;99.90;;;;;;5057392;28;20245;-70
2021/07/11 02:05:22;;;;;;;5.85;2.15;;;15.60;99.90;;;;;;5075288;28;20181;-70
2021/07/11 02:07:49;;;;;;;7.65;2.35;;;15.50;99.90;;;;;;5075097;28;20210;-71
2021/07/11 02:10:16;;;;;;;9.48;2.78;;;15.50;99.90;;;;;;5075873;28;20178;-70
2021/07/11 02:12:56;;;;;;;10.48;2.50;;;15.50;99.90;;;;;;5057275;28;20177;-70
2021/07/11 02:15:29;;;;;;;7.55;2.00;;;15.50;99.90;;;;;;5045566;28;20511;-72
2021/07/11 02:17:56;;;;;;;14.13;2.45;;;15.50;99.90;;;;;;5074239;28;20530;-71
2021/07/11 02:20:22;;;;;;;11.60;2.50;;;15.60;99.90;;;;;;5072869;28;20657;-71
2021/07/11 02:22:48;;;;;;;5.72;2.00;;;15.60;99.90;;;;;;5073289;28;20178;-70
2021/07/11 02:25:16;;;;;;;5.53;2.22;;;15.60;99.90;;;;;;5074079;28;20174;-71
2021/07/11 02:27:46;;;;;;;7.10;2.28;;;15.60;99.90;;;;;;5074810;28;20569;-71
2021/07/11 02:30:16;;;;;;;8.48;2.75;;;15.60;99.90;;;;;;5075395;28;20185;-71
2021/07/11 02:32:45;;;;;;;10.73;2.28;;;15.60;99.90;;;;;;5073753;28;20226;-71
2021/07/11 02:35:12;;;;;;;11.18;3.00;;;15.60;99.90;;;;;;5057692;28;20654;-71
2021/07/11 02:37:39;;;;;;;9.18;2.40;;;15.60;99.90;;;;;;5057019;28;20173;-71
2021/07/11 02:40:07;;;;;;;9.43;2.17;;;15.60;99.90;;;;;;5073383;28;20178;-71
2021/07/11 02:42:33;;;;;;;7.95;2.80;;;15.60;99.90;;;;;;5074847;28;20206;-70
2021/07/11 02:44:59;;;;;;;10.10;2.88;;;15.60;99.90;;;;;;5073481;28;20188;-71
2021/07/11 02:47:27;;;;;;;6.03;2.25;;;15.60;99.90;;;;;;5073654;28;20205;-71
2021/07/11 02:49:55;;;;;;;11.60;2.42;;;15.60;99.90;;;;;;5073522;28;20178;-71
2021/07/11 02:52:21;;;;;;;9.07;2.40;;;15.60;99.90;;;;;;5055503;28;20188;-70
2021/07/11 02:55:15;;;;;;;6.45;2.17;;;15.60;99.90;;;;;;5073722;28;20666;-70
2021/07/11 02:57:43;;;;;;;14.07;2.88;;;15.60;99.90;;;;;;5037788;28;20182;-70
2021/07/11 03:00:09;;;;;;;4.95;2.60;;;15.60;99.90;;;;;;5074369;28;20174;-71
2021/07/11 03:02:35;;;;;;;8.25;2.67;;;15.60;99.90;;;;;;5073404;28;20194;-71
2021/07/11 03:05:02;;;;;;;10.45;2.40;;;15.60;99.90;;;;;;5073574;28;20665;-72
2021/07/11 03:07:29;;;;;;;8.73;2.08;;;15.60;99.90;;;;;;5073229;28;20210;-71
2021/07/11 03:09:55;;;;;;;7.30;2.10;;;15.60;99.90;;;;;;5072335;28;20174;-71
2021/07/11 03:12:21;;;;;;;8.70;2.50;;;15.60;99.90;;;;;;5073217;28;20193;-70
2021/07/11 03:14:48;;;;;;;8.10;2.20;;;15.70;99.90;;;;;;5073450;28;20181;-71
2021/07/11 03:17:16;;;;;;;9.68;2.50;;;15.70;99.90;;;;;;5074874;28;20167;-70
2021/07/11 03:19:42;;;;;;;9.70;2.80;;;15.70;99.90;;;;;;5072705;28;20170;-70
2021/07/11 03:22:08;;;;;;;8.85;2.40;;;15.70;99.90;;;;;;5072795;28;20185;-70
2021/07/11 03:24:35;;;;;;;12.18;2.83;;;15.70;99.90;;;;;;5073005;28;20178;-71
2021/07/11 03:27:01;;;;;;;9.73;2.75;;;15.80;99.90;;;;;;5072816;28;20190;-70
2021/07/11 03:30:01;;;;;;;12.23;2.90;;;15.70;99.90;;;;;;5072525;28;20174;-70
2021/07/11 03:32:29;;;;;;;5.20;2.33;;;15.80;99.90;;;;;;5072946;28;20162;-70
2021/07/11 03:34:57;;;;;;;14.82;2.40;;;15.70;99.90;;;;;;5072513;28;20189;-69
2021/07/11 03:37:23;;;;;;;7.20;2.25;;;15.70;99.90;;;;;;5072348;28;20185;-69
2021/07/11 03:39:49;;;;;;;9.25;2.17;;;15.70;99.90;;;;;;5055264;28;20185;-70
2021/07/11 03:42:16;;;;;;;6.95;2.42;;;15.70;99.90;;;;;;5072380;28;20213;-70
2021/07/11 03:44:47;;;;;;;7.15;2.42;;;15.70;99.90;;;;;;5073799;28;20181;-70
2021/07/11 03:47:15;;;;;;;8.93;2.42;;;15.80;99.90;;;;;;5072336;28;20197;-68
2021/07/11 03:49:44;;;;;;;8.30;2.30;;;15.80;99.90;;;;;;5072076;28;20174;-68
2021/07/11 03:52:10;;;;;;;8.00;2.72;;;15.80;99.90;;;;;;5071732;28;20178;-70
2021/07/11 03:54:36;;;;;;;8.45;2.53;;;15.80;99.90;;;;;;5072520;28;20193;-69
2021/07/11 03:57:03;;;;;;;5.68;2.40;;;15.80;99.90;;;;;;5072042;28;20537;-69
2021/07/11 03:59:33;;;;;;;11.80;3.20;;;15.80;99.90;;;;;;5073343;28;20186;-69
2021/07/11 04:02:00;;;;;;;9.75;2.50;;;15.80;99.90;;;;;;5055019;28;20566;-70
2021/07/11 04:04:26;;;;;;;8.23;2.88;;;15.70;99.90;;;;;;5069925;28;20196;-70
2021/07/11 04:06:52;;;;;;;13.95;2.92;;;15.70;99.90;;;;;;5072152;28;20208;-69
2021/07/11 04:09:20;;;;;;;7.22;2.30;;;15.80;99.90;;;;;;5071828;28;20173;-68
2021/07/11 04:11:47;;;;;;;8.85;2.53;;;15.70;99.90;;;;;;5071019;28;20530;-68
2021/07/11 04:14:15;;;;;;;9.30;2.55;;;15.80;99.90;;;;;;5072539;28;20177;-68
2021/07/11 04:16:41;;;;;;;16.25;3.08;;;15.80;99.90;;;;;;5071968;28;20170;-70
2021/07/11 04:19:07;;;;;;;10.68;2.55;;;15.80;99.90;;;;;;5055088;28;20630;-70
2021/07/11 04:21:33;;;;;;;5.50;2.35;;;15.80;99.90;;;;;;5071816;28;20189;-71
2021/07/11 04:23:59;;;;;;;5.95;2.45;;;15.80;99.90;;;;;;5071544;28;20652;-69
2021/07/11 04:26:26;;;;;;;7.15;2.53;;;15.70;99.90;;;;;;5071694;28;20565;-69
2021/07/11 04:28:52;;;;;;;8.38;2.35;;;15.70;99.90;;;;;;5071517;28;20182;-69
2021/07/11 04:31:19;;;;;;;3.88;2.50;;;15.80;99.90;;;;;;5070681;28;20165;-68
2021/07/11 04:33:46;;;;;;;8.85;2.35;;;15.80;99.90;;;;;;5070561;28;20650;-69
2021/07/11 04:36:12;;;;;;;8.18;2.40;;;15.80;99.90;;;;;;5071722;28;20185;-69
2021/07/11 04:38:38;;;;;;;7.70;2.25;;;15.80;99.90;;;;;;5054832;28;20181;-69
2021/07/11 04:41:06;;;;;;;4.20;2.33;;;15.80;99.90;;;;;;5071004;28;20765;-69
2021/07/11 04:43:32;;;;;;;10.23;2.30;;;15.80;99.90;;;;;;5070819;28;20201;-70
2021/07/11 04:45:58;;;;;;;5.80;2.33;;;15.80;99.90;;;;;;5072543;28;20166;-70
2021/07/11 04:48:24;;;;;;;6.00;2.50;;;15.80;99.90;;;;;;5072869;28;20210;-69
2021/07/11 04:50:50;;;;;;;6.85;2.30;;;15.90;99.90;;;;;;5071995;28;20186;-69
2021/07/11 04:53:17;;;;;;;10.10;2.42;;;15.80;99.90;;;;;;5054778;28;20182;-69
2021/07/11 04:55:44;;;;;;;6.57;2.15;;;15.80;99.90;;;;;;5072214;28;20189;-68
2021/07/11 04:58:10;;;;;;;10.38;3.03;;;15.80;99.90;;;;;;5072820;28;20188;-68
2021/07/11 05:00:36;;;;;;;9.70;2.53;;;15.80;99.90;;;;;;5072701;28;20649;-67
2021/07/11 05:03:02;;;;;;;5.25;2.20;;;15.80;99.90;;;;;;5070539;28;20201;-67
2021/07/11 05:05:28;;;;;;;4.40;2.10;;;15.80;99.90;;;;;;5072319;28;20178;-68
2021/07/11 05:07:54;;;;;;;5.13;2.30;;;15.90;99.90;;;;;;5072208;28;20206;-69
2021/07/11 05:10:20;;;;;;;4.70;2.00;;;15.90;99.90;;;;;;5072212;28;20196;-69
2021/07/11 05:12:46;;;;;;;6.78;2.53;;;15.90;99.90;;;;;;5072045;28;20181;-69
2021/07/11 05:15:12;;;;;;;9.48;2.63;;;15.90;99.90;;;;;;5071959;28;20681;-69
2021/07/11 05:17:39;;;;;;;8.02;2.58;;;16.00;99.90;;;;;;5070596;28;21917;-70
2021/07/11 05:20:06;;;;;;;7.15;2.50;;;15.90;99.90;;;;;;5072376;28;20181;-68
2021/07/11 05:22:32;;;;;;;6.95;2.53;;;16.00;99.90;;;;;;5071386;28;20174;-69
2021/07/11 05:24:58;;;;;;;8.02;2.42;;;15.90;99.90;;;;;;5053847;28;20551;-68
2021/07/11 05:27:25;;;;;;;8.27;2.28;;;16.00;99.90;;;;;;5071444;28;20209;-70
2021/07/11 05:29:51;;;;;;;8.20;2.30;;;16.00;99.90;;;;;;5071161;28;20170;-68
2021/07/11 05:32:17;;;;;;;6.10;2.25;;;16.00;99.90;;;;;;5072324;28;20182;-70
2021/07/11 05:34:43;;;;;;;5.50;2.20;;;16.00;99.90;;;;;;5070518;28;20182;-69
2021/07/11 05:37:09;;;;;;;4.45;2.17;;;16.10;99.90;;;;;;5072178;28;20185;-70
2021/07/11 05:39:36;;;;;;;8.07;2.30;;;16.00;99.90;;;;;;5071046;28;20268;-70
2021/07/11 05:42:02;;;;;;;9.35;2.65;;;16.00;99.90;;;;;;5071753;28;20222;-69
2021/07/11 05:44:28;;;;;;;4.72;2.47;;;16.00;99.90;;;;;;5071547;28;20534;-70
2021/07/11 05:46:54;;;;;;;10.73;2.08;;;16.00;99.90;;;;;;5071922;28;20208;-70
2021/07/11 05:49:20;;;;;;;9.02;2.72;;;16.00;99.90;;;;;;5071790;28;20186;-69
2021/07/11 05:51:46;;;;;;;6.30;2.63;;;16.10;99.90;;;;;;5071342;28;20627;-70
2021/07/11 05:54:12;;;;;;;9.80;2.45;;;16.10;99.90;;;;;;5071910;28;20178;-70
2021/07/11 05:56:38;;;;;;;7.25;2.78;;;16.10;99.90;;;;;;5071588;28;20224;-70
2021/07/11 05:59:04;;;;;;;8.73;2.65;;;16.10;99.90;;;;;;5071664;28;20177;-70
2021/07/11 06:01:30;;;;;;;7.45;2.38;;;16.10;99.90;;;;;;5070915;28;20194;-71
2021/07/11 06:03:56;;;;;;;4.70;2.33;;;16.10;99.90;;;;;;5072350;28;20174;-70
2021/07/11 06:06:23;;;;;;;5.32;2.53;;;16.20;99.90;;;;;;5072245;28;20528;-69
2021/07/11 06:08:49;;;;;;;11.88;3.15;;;16.10;99.90;;;;;;5071897;28;20205;-69
2021/07/11 06:11:16;;;;;;;5.28;2.50;;;16.10;99.90;;;;;;5072188;28;20181;-68
2021/07/11 06:13:42;;;;;;;7.38;2.42;;;16.10;99.90;;;;;;5072201;28;20654;-69
2021/07/11 06:16:09;;;;;;;17.63;4.45;;;16.10;99.90;;;;;;5072267;28;20170;-68
2021/07/11 06:18:35;;;;;;;7.13;2.95;;;16.20;99.90;;;;;;5072138;28;20193;-69
2021/07/11 06:21:01;;;;;;;8.10;2.55;;;16.20;99.90;;;;;;5071398;28;20182;-69
2021/07/11 06:23:27;;;;;;;9.77;2.50;;;16.20;99.90;;;;;;5070217;28;20200;-69
2021/07/11 06:25:53;;;;;;;4.38;2.30;;;16.20;99.90;;;;;;5072560;28;20185;-69
2021/07/11 06:28:19;;;;;;;7.53;2.75;;;16.20;99.90;;;;;;5075835;28;20568;-69
2021/07/11 06:30:45;;;;;;;7.57;2.63;;;16.30;99.90;;;;;;5073816;28;20170;-70
2021/07/11 06:33:11;;;;;;;6.50;2.35;;;16.20;99.90;;;;;;5073662;28;20630;-69
2021/07/11 06:35:37;;;;;;;9.05;2.50;;;16.20;99.90;;;;;;5075538;28;20181;-69
2021/07/11 06:38:03;;;;;;;10.15;2.60;;;16.20;99.90;;;;;;5074637;28;20519;-69
2021/07/11 06:40:30;;;;;;;7.78;2.50;;;16.30;99.90;;;;;;5074574;28;20170;-70
2021/07/11 06:42:56;;;;;;;7.90;2.42;;;16.30;99.90;;;;;;5074781;28;20178;-70
2021/07/11 06:45:22;;;;;;;13.70;2.67;;;16.30;99.90;;;;;;5072250;28;20174;-70
2021/07/11 06:47:48;;;;;;;4.35;2.42;;;16.40;99.90;;;;;;5074524;28;20202;-69
2021/07/11 06:50:15;;;;;;;6.90;2.78;;;16.40;99.90;;;;;;5074389;28;20181;-72
2021/07/11 06:52:41;;;;;;;14.40;3.00;;;16.40;99.90;;;;;;5074774;28;20174;-70
2021/07/11 06:55:08;;;;;;;10.48;3.10;;;16.50;99.90;;;;;;5056781;28;20194;-70
2021/07/11 06:57:34;;;;;;;9.27;2.80;;;16.50;99.90;;;;;;5075090;28;20186;-70
2021/07/11 07:00:01;;;;;;;14.00;3.50;;;16.50;99.90;;;;;;5072502;28;20174;-69
2021/07/11 07:02:27;;;;;;;6.47;2.75;;;16.50;99.90;;;;;;5063825;28;20206;-69
2021/07/11 07:04:54;;;;;;;9.85;2.78;;;16.50;99.90;;;;;;5055268;28;20190;-69
2021/07/11 07:07:20;;;;;;;6.55;2.40;;;16.50;99.90;;;;;;5054982;28;20209;-69
2021/07/11 07:09:46;;;;;;;5.80;2.53;;;16.50;99.90;;;;;;5053701;28;20170;-69
2021/07/11 07:12:12;;;;;;;10.07;2.80;;;16.50;99.90;;;;;;5054816;28;20186;-70
2021/07/11 07:14:38;;;;;;;5.28;2.38;;;16.60;99.90;;;;;;5073676;28;20193;-69
2021/07/11 07:17:05;;;;;;;6.53;2.67;;;16.60;99.90;;;;;;5074602;28;20177;-68
2021/07/11 07:19:31;;;;;;;8.23;2.83;;;16.70;99.90;;;;;;5074519;28;20162;-68
2021/07/11 07:21:57;;;;;;;9.73;2.35;;;16.70;99.90;;;;;;5074742;28;20181;-70
2021/07/11 07:24:23;;;;;;;4.68;2.47;;;16.70;99.90;;;;;;5073640;28;20185;-68
2021/07/11 07:26:49;;;;;;;5.10;2.38;;;16.70;99.90;;;;;;5071586;28;20177;-70
2021/07/11 07:29:15;;;;;;;12.40;3.03;;;16.70;99.90;;;;;;5067422;28;20179;-69
2021/07/11 07:31:42;;;;;;;7.68;3.20;;;16.70;99.90;;;;;;5053090;28;20178;-69
2021/07/11 07:34:08;;;;;;;12.43;2.75;;;16.70;99.90;;;;;;5054139;28;20178;-71
2021/07/11 07:36:35;;;;;;;5.03;2.83;;;16.80;99.90;;;;;;5059815;28;20181;-71
2021/07/11 07:39:01;;;;;;;13.52;2.60;;;16.80;99.90;;;;;;5073349;28;20638;-70
2021/07/11 07:41:27;;;;;;;11.43;2.80;;;16.80;99.90;;;;;;5074114;28;20591;-70
2021/07/11 07:43:53;;;;;;;10.90;2.97;;;16.90;99.90;;;;;;5074283;28;20173;-70
2021/07/11 07:46:19;;;;;;;10.70;2.88;;;17.00;99.90;;;;;;5072907;28;20554;-69
2021/07/11 07:48:45;;;;;;;9.35;2.95;;;17.00;99.90;;;;;;5074201;28;20217;-69
2021/07/11 07:51:11;;;;;;;7.18;2.50;;;17.10;99.90;;;;;;5073816;28;20535;-69
2021/07/11 07:53:37;;;;;;;8.85;3.30;;;17.20;99.90;;;;;;5074102;28;20178;-70
2021/07/11 07:56:04;;;;;;;9.88;2.90;;;17.30;99.90;;;;;;5074049;28;20166;-70
2021/07/11 07:58:30;;;;;;;5.88;2.45;;;17.40;99.90;;;;;;5073915;28;20177;-69
2021/07/11 08:00:56;;;;;;;7.07;2.33;;;17.40;99.90;;;;;;5073782;28;20166;-69
2021/07/11 08:03:22;;;;;;;7.85;2.30;;;17.50;99.90;;;;;;5074103;28;20177;-68
2021/07/11 08:05:48;;;;;;;4.45;2.30;;;17.50;99.90;;;;;;5073061;28;20186;-68
2021/07/11 08:08:14;;;;;;;4.55;1.92;;;17.50;99.90;;;;;;5073240;28;20210;-69
2021/07/11 08:10:40;;;;;;;4.75;2.05;;;17.60;99.90;;;;;;5072129;28;20184;-69
2021/07/11 08:13:06;;;;;;;5.43;2.05;;;17.60;99.90;;;;;;5073068;28;20181;-69
2021/07/11 08:15:33;;;;;;;7.20;2.13;;;17.50;99.90;;;;;;5071664;28;20540;-69
2021/07/11 08:17:59;;;;;;;5.60;2.50;;;17.40;99.90;;;;;;5072953;28;20563;-70
2021/07/11 08:20:25;;;;;;;3.80;2.42;;;17.40;99.90;;;;;;5072600;28;20181;-70
2021/07/11 08:22:51;;;;;;;5.30;1.52;;;17.50;99.90;;;;;;5072783;28;20182;-70
2021/07/11 08:25:17;;;;;;;4.88;2.28;;;17.40;99.90;;;;;;5072113;28;20197;-68
2021/07/11 08:27:44;;;;;;;4.68;2.05;;;17.40;99.90;;;;;;5072516;28;20201;-69
2021/07/11 08:30:11;;;;;;;9.82;2.40;;;17.40;99.90;;;;;;5072694;28;20189;-69
2021/07/11 08:32:38;;;;;;;4.15;1.70;;;17.50;99.90;;;;;;5071481;28;20644;-70
2021/07/11 08:35:05;;;;;;;5.43;2.15;;;17.60;99.90;;;;;;5070888;28;20189;-68
2021/07/11 08:37:31;;;;;;;3.72;1.95;;;17.60;99.90;;;;;;5071375;28;20173;-69
2021/07/11 08:39:57;;;;;;;9.45;2.50;;;17.60;99.90;;;;;;5071277;28;20186;-68
2021/07/11 08:42:26;;;;;;;8.65;2.10;;;17.50;99.90;;;;;;5072182;28;20224;-68
2021/07/11 08:44:52;;;;;;;6.30;2.20;;;17.40;99.90;;;;;;5055110;28;20658;-68
2021/07/11 08:47:19;;;;;;;3.83;2.50;;;17.40;99.90;;;;;;5070096;28;20186;-68
2021/07/11 08:49:46;;;;;;;5.75;2.38;;;17.40;99.90;;;;;;5052785;28;20177;-68
2021/07/11 08:52:12;;;;;;;8.90;2.30;;;17.30;99.90;;;;;;5069476;28;20181;-70
2021/07/11 08:54:38;;;;;;;7.15;2.83;;;17.30;99.90;;;;;;5072434;28;20178;-69
2021/07/11 08:57:06;;;;;;;5.13;2.17;;;17.30;99.90;;;;;;5072325;28;20178;-71
2021/07/11 08:59:32;;;;;;;5.85;2.20;;;17.30;99.90;;;;;;5070680;28;20209;-68
2021/07/11 09:01:58;;;;;;;7.18;2.40;;;17.30;99.90;;;;;;5071570;28;20548;-69
2021/07/11 09:04:25;;;;;;;3.08;2.08;;;17.30;99.90;;;;;;5072437;28;20186;-68
2021/07/11 09:06:53;;;;;;;7.30;2.60;;;17.20;99.90;;;;;;5072159;28;20545;-69
2021/07/11 09:09:33;;;;;;;8.20;2.50;;;17.30;99.90;;;;;;5071250;28;20206;-69
2021/07/11 09:12:07;;;;;;;3.53;2.08;;;17.40;99.90;;;;;;5070274;28;20169;-69
2021/07/11 09:14:34;;;;;;;7.15;2.33;;;17.40;99.90;;;;;;5070800;28;20174;-59
2021/07/11 09:17:02;;;;;;;5.82;2.03;;;17.50;99.90;;;;;;5071786;28;20186;-69
2021/07/11 09:19:29;;;;;;;6.03;2.13;;;17.50;99.90;;;;;;5069635;28;20174;-62
2021/07/11 09:21:55;;;;;;;6.45;2.00;;;17.40;99.90;;;;;;5071156;28;20252;-67
2021/07/11 09:24:22;;;;;;;11.32;2.55;;;17.40;99.90;;;;;;5070604;28;20181;-67
2021/07/11 09:26:50;;;;;;;4.82;2.17;;;17.40;99.90;;;;;;5071386;28;20174;-64
2021/07/11 09:29:29;;;;;;;7.53;1.63;;;17.40;99.90;;;;;;5071038;28;20210;-64
2021/07/11 09:31:55;;;;;;;6.28;2.67;;;17.40;99.90;;;;;;5072216;28;20186;-64
2021/07/11 09:34:23;;;;;;;5.75;1.85;;;17.50;99.90;;;;;;5071050;28;20538;-64
2021/07/11 09:37:05;;;;;;;9.35;2.67;;;17.60;99.90;;;;;;5072359;28;20173;-64
2021/07/11 09:39:32;;;;;;;4.32;2.47;;;17.70;99.90;;;;;;5061533;28;20173;-65
2021/07/11 09:42:01;;;;;;;5.32;2.40;;;17.80;99.90;;;;;;5072445;28;20230;-64
2021/07/11 09:44:43;;;;;;;5.30;1.83;;;17.90;99.90;;;;;;5053382;28;20185;-63
2021/07/11 09:47:20;;;;;;;7.35;2.22;;;17.90;99.90;;;;;;5066680;28;20634;-65
2021/07/11 09:50:00;;;;;;;5.05;2.00;;;18.10;99.90;;;;;;5065539;28;20205;-65
2021/07/11 09:52:26;;;;;;;3.92;2.03;;;18.30;99.90;;;;;;5071839;28;20173;-65
2021/07/11 09:55:06;;;;;;;5.53;2.05;;;18.30;99.90;;;;;;5070753;28;20177;-65
2021/07/11 09:57:37;;;;;;;4.72;2.08;;;18.10;99.90;;;;;;5069934;28;20194;-65
2021/07/11 10:00:25;;;;;;;7.95;1.90;;;18.10;99.90;;;;;;5069413;28;20884;-65
2021/07/11 10:02:56;;;;;;;5.35;2.08;;;18.00;99.90;;;;;;5074641;28;20158;-65
2021/07/11 10:05:23;;;;;;;6.18;2.00;;;18.00;99.90;;;;;;5057668;28;20170;-65
2021/07/11 10:07:49;;;;;;;3.58;2.03;;;17.90;99.90;;;;;;5073954;28;20205;-65
2021/07/11 10:10:17;;;;;;;5.90;1.77;;;18.00;99.90;;;;;;5073715;28;20182;-66
2021/07/11 10:12:43;;;;;;;5.95;2.25;;;18.00;99.90;;;;;;5057151;28;20174;-66
2021/07/11 10:15:17;;;;;;;8.05;1.80;;;17.90;99.90;;;;;;5075321;28;20178;-65
2021/07/11 10:17:54;;;;;;;5.85;1.88;;;18.00;99.90;;;;;;5074224;28;20173;-65
2021/07/11 10:20:20;;;;;;;4.20;1.92;;;18.00;99.90;;;;;;5056768;28;20527;-62
2021/07/11 10:22:49;;;;;;;4.10;1.90;;;18.00;99.90;;;;;;5074076;28;20182;-63
2021/07/11 10:25:34;;;;;;;5.43;1.80;;;18.10;99.90;;;;;;5074506;28;20193;-63
2021/07/11 10:28:07;;;;;;;2.45;1.80;;;18.40;99.90;;;;;;5073731;28;20238;-64
2021/07/11 10:30:33;;;;;;;3.75;1.67;;;18.70;99.90;;;;;;5075183;28;20170;-64
2021/07/11 10:33:07;;;;;;;5.63;1.60;;;18.70;99.90;;;;;;5074341;28;20229;-64
2021/07/11 10:35:33;;;;;;;5.72;2.10;;;18.50;99.90;;;;;;5075406;28;20173;-79
2021/07/11 10:37:59;;;;;;;4.70;1.70;;;18.50;99.90;;;;;;5074043;28;20634;-72
2021/07/11 10:40:32;;;;;;;4.10;1.98;;;18.60;99.90;;;;;;5074818;28;20194;-74
2021/07/11 10:42:58;;;;;;;2.92;1.52;;;18.50;99.90;;;;;;5073723;28;20193;-75
2021/07/11 10:45:24;;;;;;;4.13;1.83;;;18.50;99.90;;;;;;5071576;28;20182;-74
2021/07/11 10:47:50;;;;;;;5.07;1.80;;;18.50;99.90;;;;;;5073026;28;20225;-74
2021/07/11 10:50:27;;;;;;;4.90;1.67;;;18.40;99.90;;;;;;5071829;28;20201;-74
2021/07/11 10:52:55;;;;;;;2.15;1.60;;;18.30;99.90;;;;;;5073038;28;20185;-76
2021/07/11 10:55:21;;;;;;;3.45;1.60;;;18.30;99.90;;;;;;5073409;28;20177;-75
2021/07/11 10:57:47;;;;;;;3.85;1.70;;;18.30;99.90;;;;;;5073259;28;20169;-75
2021/07/11 11:00:25;;;;;;;3.33;1.55;;;18.30;99.90;;;;;;5073288;28;20192;-73
2021/07/11 11:02:52;;;;;;;3.78;1.60;;;18.30;99.90;;;;;;5074125;28;20181;-74
2021/07/11 11:05:23;;;;;;;5.85;1.67;;;18.40;99.90;;;;;;5074331;28;20532;-74
2021/07/11 11:07:50;;;;;;;5.82;1.70;;;18.60;99.90;;;;;;5075290;28;20163;-75
2021/07/11 11:10:23;;;;;;;3.20;1.75;;;18.70;99.90;;;;;;5075134;28;20181;-70
2021/07/11 11:13:16;;;;;;;4.72;1.45;;;18.50;99.90;;;;;;5075005;28;20166;-70
2021/07/11 11:15:44;;;;;;;2.50;1.60;;;18.60;99.90;;;;;;5055643;28;20185;-70
2021/07/11 11:18:30;;;;;;;3.08;1.70;;;18.60;99.90;;;;;;5073546;28;20618;-72
2021/07/11 11:20:57;;;;;;;2.70;1.73;;;18.40;99.90;;;;;;5074662;28;20614;-70
2021/07/11 11:23:24;;;;;;;1.60;1.30;;;18.30;99.90;;;;;;5074888;28;20162;-71
2021/07/11 11:25:50;;;;;;;7.28;1.67;;;18.20;99.90;;;;;;5074293;28;20647;-72
2021/07/11 11:28:35;;;;;;;4.85;1.85;;;18.20;99.90;;;;;;5074747;28;20663;-71
2021/07/11 11:31:06;;;;;;;3.20;1.60;;;18.20;99.90;;;;;;5073839;28;20182;-70
2021/07/11 11:34:05;;;;;;;7.97;1.98;;;18.10;99.90;;;;;;5074602;28;20170;-71
2021/07/11 11:36:32;;;;;;;4.45;1.55;;;18.20;99.90;;;;;;5062485;28;20191;-70
2021/07/11 11:39:00;;;;;;;5.32;1.40;;;18.20;99.90;;;;;;5073347;28;20166;-71
2021/07/11 11:41:27;;;;;;;4.68;2.08;;;18.10;99.90;;;;;;5073029;28;20218;-71
2021/07/11 11:44:03;;;;;;;8.15;1.38;;;18.20;99.90;;;;;;5073441;28;20162;-71
2021/07/11 11:46:30;;;;;;;3.05;1.67;;;18.20;99.90;;;;;;5073292;28;20189;-70
2021/07/11 11:49:01;;;;;;;2.53;1.70;;;18.20;99.90;;;;;;5073633;28;20213;-69
2021/07/11 11:51:27;;;;;;;4.07;1.77;;;18.20;99.90;;;;;;5074254;28;20162;-71
2021/07/11 11:53:53;;;;;;;3.38;1.60;;;18.30;99.90;;;;;;5074243;28;20178;-71
2021/07/11 11:56:19;;;;;;;4.65;1.50;;;18.20;99.90;;;;;;5074157;28;20627;-72
2021/07/11 11:58:46;;;;;;;2.58;1.38;;;18.20;99.90;;;;;;5072952;28;20174;-72
2021/07/11 12:01:13;;;;;;;1.77;1.58;;;18.10;99.90;;;;;;5073826;28;20570;-72
2021/07/11 12:03:40;;;;;;;4.65;1.83;;;18.20;99.90;;;;;;5072773;28;20182;-73
2021/07/11 12:06:08;;;;;;;4.68;1.70;;;18.30;99.90;;;;;;5072739;28;20173;-72
2021/07/11 12:08:41;;;;;;;5.38;1.88;;;18.20;99.90;;;;;;5071672;28;20682;-72
2021/07/11 12:11:07;;;;;;;3.20;1.60;;;18.30;99.90;;;;;;5073875;28;20178;-72
2021/07/11 12:13:33;;;;;;;6.97;1.70;;;18.40;99.90;;;;;;5072574;28;20169;-71
2021/07/11 12:16:14;;;;;;;3.47;1.70;;;18.40;99.90;;;;;;5072502;28;20174;-71
2021/07/11 12:18:47;;;;;;;5.00;1.50;;;18.50;99.90;;;;;;5073755;28;20195;-71
2021/07/11 12:21:19;;;;;;;3.17;2.10;;;18.40;99.90;;;;;;5071707;28;20193;-73
2021/07/11 12:24:11;;;;;;;3.47;1.52;;;18.30;99.90;;;;;;5073220;28;20174;-73
2021/07/11 12:26:39;;;;;;;2.97;1.80;;;18.30;99.90;;;;;;5073532;28;20182;-72
2021/07/11 12:29:06;;;;;;;4.13;1.75;;;18.40;99.90;;;;;;5073356;28;20217;-72
2021/07/11 12:31:32;;;;;;;4.90;1.92;;;18.40;99.90;;;;;;5073529;28;20189;-71
2021/07/11 12:34:00;;;;;;;3.08;1.42;;;18.60;99.90;;;;;;5055147;28;20208;-72
2021/07/11 12:36:26;;;;;;;7.70;1.95;;;18.80;99.90;;;;;;5072196;28;20529;-74
2021/07/11 12:38:53;;;;;;;4.93;1.50;;;18.90;99.90;;;;;;5072341;28;20169;-70
2021/07/11 12:41:25;;;;;;;3.45;1.60;;;19.10;99.90;;;;;;5072768;28;20218;-72
2021/07/11 12:43:56;;;;;;;3.35;1.83;;;19.10;99.90;;;;;;5071735;28;20186;-72
2021/07/11 12:46:25;;;;;;;3.33;1.77;;;19.00;99.90;;;;;;5073346;28;20166;-73
2021/07/11 12:48:57;;;;;;;4.57;1.70;;;19.00;99.90;;;;;;5072053;28;20205;-73
2021/07/11 12:51:29;;;;;;;3.70;1.77;;;19.10;99.90;;;;;;5070490;28;20893;-73